This is the latest recevied weather packets stored in our database for station/object OM2RC-6. If no packets are shown the sender has not sent any weather packets the latest 1 day(s).
| Time | Temp. | Humidity | Pressure | Rain* | Wind** | Luminosity | Snow |
|---|---|---|---|---|---|---|---|
| 1777980016 | 23.89° C | 41% | 1009.4 hPa | - | 4.02 m/s, 153° | - | - |
| 1777979714 | 23.33° C | 41% | 1009.6 hPa | - | 5.81 m/s, 125° | - | - |
| 1777979412 | 23.33° C | 44% | 1009.4 hPa | - | 4.47 m/s, 149° | - | - |
| 1777979112 | 23.33° C | 45% | 1009.6 hPa | - | 4.92 m/s, 151° | - | - |
| 1777978808 | 23.89° C | 44% | 1009.6 hPa | - | 4.47 m/s, 141° | - | - |
| 1777978507 | 23.33° C | 44% | 1009.5 hPa | - | 4.92 m/s, 148° | - | - |
| 1777978205 | 23.33° C | 45% | 1009.5 hPa | - | 5.81 m/s, 158° | - | - |
| 1777977905 | 22.78° C | 49% | 1009.6 hPa | - | 6.71 m/s, 155° | - | - |
| 1777977603 | 22.78° C | 47% | 1009.6 hPa | - | 6.26 m/s, 142° | - | - |
| 1777977302 | 23.33° C | 47% | 1009.8 hPa | - | 6.26 m/s, 133° | - | - |
| 1777977000 | 22.22° C | 50% | 1009.7 hPa | - | 5.81 m/s, 142° | - | - |
| 1777976699 | 21.67° C | 50% | 1009.8 hPa | - | 6.26 m/s, 150° | - | - |
| 1777976398 | 22.78° C | 47% | 1009.7 hPa | - | 5.81 m/s, 137° | - | - |
| 1777976097 | 22.22° C | 49% | 1009.8 hPa | - | 7.15 m/s, 165° | - | - |
| 1777975493 | 22.22° C | 53% | 1009.9 hPa | - | 5.36 m/s, 146° | - | - |
| 1777975193 | 21.67° C | 53% | 1009.9 hPa | - | 4.47 m/s, 146° | - | - |
| 1777974890 | 22.22° C | 53% | 1009.9 hPa | - | 4.02 m/s, 150° | - | - |
| 1777974588 | 21.67° C | 53% | 1010 hPa | - | 5.36 m/s, 141° | - | - |
| 1777974286 | 21.11° C | 55% | 1010.1 hPa | - | 6.26 m/s, 132° | - | - |
| 1777973684 | 21.11° C | 56% | 1009.8 hPa | - | 5.36 m/s, 137° | - | - |
| 1777973383 | 20.56° C | 57% | 1010.3 hPa | - | 5.36 m/s, 147° | - | - |
| 1777973082 | 20° C | 60% | 1010.3 hPa | - | 4.92 m/s, 137° | - | - |
| 1777972781 | 19.44° C | 61% | 1010.2 hPa | - | 5.36 m/s, 134° | - | - |
| 1777972479 | 19.44° C | 61% | 1010.2 hPa | - | 6.26 m/s, 133° | - | - |
| 1777972177 | 20° C | 59% | 1010.3 hPa | - | 5.36 m/s, 146° | - | - |
* Rain since midnight (hover to see other rain measurements)
** Current wind speed in m/s (hover to see current wind gust speed)